»·PEaware :: N6262R KEMT-KPMD

N6262R :: KEMT-KPMD

FLIGHT INFORMATION

Flight Status: Arrived
Operator: Privately registered:
United States
More flights under this callsign
Pilot: Keith G. (35160)
Aircraft: Diamond DA-62
(DA62)
More flights by this aircraft type
Origin: KEMT El Monte
United States
Destination: KPMD Palmdale AF Plant 42
United States
More flights between these airports :: More routes between these airports
Route: PDZ V186 DARTS V459 V201 PMD
File this flight plan on PilotEdge
Remarks:
Altitude:
(Current/Filed)
7,000ft
Speed:
(Current/Filed)
175kts
Departed: 25-Feb-23 07:24 PM
Arrived: 25-Feb-23 08:00 PM
Distance/Time
Traveled:
33nm/0:36
Distance/Time
To Go:
Arrived

Flight Plot

Page will automatically refresh every two minutes.

Flight plan parsing failed; only flown route is shown


Map Options




Map Legend


Flown Route
Filed Route
Departure Airport
Arrival Airport
Navaid (VOR, NDB)
Fix

Horizontal Profiles

Position Reports

Time Latitude Longitude Heading Altitude Ground
Speed
25-Feb-23 19:04 34.085446 -118.034228 8 291ft 0kts
25-Feb-23 19:05 34.085446 -118.034228 8 282ft 0kts
25-Feb-23 19:06 34.085446 -118.034228 8 282ft 0kts
25-Feb-23 19:07 34.085446 -118.034228 8 282ft 0kts
25-Feb-23 19:08 34.085446 -118.034228 8 282ft 0kts
25-Feb-23 19:09 34.085446 -118.034228 8 282ft 0kts
25-Feb-23 19:10 34.085446 -118.034228 8 282ft 0kts
25-Feb-23 19:11 34.085446 -118.034228 8 282ft 0kts
25-Feb-23 19:12 34.085446 -118.034228 8 282ft 0kts
25-Feb-23 19:13 34.085446 -118.034228 8 282ft 0kts
25-Feb-23 19:14 34.085446 -118.034228 8 282ft 0kts
25-Feb-23 19:15 34.085446 -118.034228 8 282ft 0kts
25-Feb-23 19:16 34.085446 -118.034228 8 282ft 0kts
25-Feb-23 19:17 34.085446 -118.034228 8 282ft 0kts
25-Feb-23 19:18 34.085446 -118.034228 8 282ft 0kts
25-Feb-23 19:19 34.085446 -118.034228 8 291ft 0kts
25-Feb-23 19:20 34.085446 -118.034228 8 291ft 0kts
25-Feb-23 19:21 34.089669 -118.032109 25 295ft 29kts
25-Feb-23 19:22 34.090650 -118.031608 347 297ft 1kts
25-Feb-23 19:23 34.079085 -118.040961 209 886ft 82kts
25-Feb-23 19:24 34.062575 -118.034150 120 2345ft 97kts
25-Feb-23 19:25 34.049452 -117.997046 116 3771ft 121kts
25-Feb-23 19:26 34.036406 -117.955860 108 5383ft 136kts
25-Feb-23 19:27 34.023087 -117.906170 111 6018ft 185kts
25-Feb-23 19:28 34.005906 -117.844330 111 6017ft 197kts
25-Feb-23 19:29 33.988385 -117.781445 111 6013ft 198kts
25-Feb-23 19:30 34.003729 -117.724015 32 6026ft 202kts
25-Feb-23 19:31 34.042393 -117.712601 290 8017ft 131kts
25-Feb-23 19:32 34.049366 -117.754904 274 9762ft 129kts
25-Feb-23 19:33 34.057318 -117.807536 276 10014ft 184kts
25-Feb-23 19:34 34.066810 -117.870119 276 10006ft 192kts
25-Feb-23 19:35 34.076381 -117.933590 276 10006ft 193kts
25-Feb-23 19:36 34.085947 -117.997279 276 10006ft 193kts
25-Feb-23 19:37 34.095484 -118.061012 276 10009ft 192kts
25-Feb-23 19:38 34.111339 -118.123088 286 10005ft 195kts
25-Feb-23 19:39 34.130141 -118.184615 286 10007ft 196kts
25-Feb-23 19:40 34.149030 -118.246543 286 9984ft 196kts
25-Feb-23 19:41 34.189496 -118.288516 340 9980ft 208kts
25-Feb-23 19:42 34.245455 -118.268065 22 9982ft 215kts
25-Feb-23 19:43 34.297838 -118.234358 46 9981ft 215kts
25-Feb-23 19:44 34.339052 -118.180696 45 9982ft 218kts
25-Feb-23 19:45 34.380816 -118.127393 46 9952ft 219kts
25-Feb-23 19:46 34.422563 -118.074020 46 9934ft 220kts
25-Feb-23 19:47 34.464391 -118.020450 45 9920ft 218kts
25-Feb-23 19:49 34.506034 -117.967061 45 9934ft 217kts
25-Feb-23 19:50 34.548908 -117.911985 47 8923ft 222kts
25-Feb-23 19:51 34.590595 -117.858349 47 7767ft 215kts
25-Feb-23 19:52 34.631837 -117.805172 47 6609ft 226kts
25-Feb-23 19:53 34.686852 -117.796840 319 5889ft 205kts
25-Feb-23 19:54 34.715913 -117.854221 263 5031ft 194kts
25-Feb-23 19:55 34.704240 -117.915105 253 4945ft 184kts
25-Feb-23 19:56 34.689076 -117.971451 233 4206ft 119kts
25-Feb-23 19:57 34.675664 -117.994392 233 4236ft 83kts
25-Feb-23 19:58 34.660211 -118.021409 231 3335ft 105kts
25-Feb-23 19:59 34.643143 -118.051212 231 2681ft 112kts
25-Feb-23 20:00 34.631283 -118.069411 226 2510ft 29kts

Navigation Log

Ident Type
Flight plan parsing failed, navigation log unavailable